Scroll down
FLIGHT INFORMATION
British Airways

BAW1509

At Arrival Gate

KLAX
 EGLL
DATE: 2021-04-01
GATE: 
GATE DEPARTURE: 15:11
TAKEOFF: 15:27
DATE: 2021-04-02
GATE:  -
LANDING: 01:50
GATE ARRIVAL: 01:58
FLIGHT DATA
Crew: 
Speed: 
901 kph
Altitude: 
41,037 ft
Stage Length: 
8,759.2 km
Block Time: 
10.7 hrs
Flight Time: 
10.4 hrs
Fuel Used: 
68,249 kg
Cleared Route: KLAX LAS SUVIE NORRA BCE HVE DBL DVV LBF OBH TODDO JORDY CAPPR DBQ BAE ASP YXI ANCER LOMSI 5550N 5740N 5730N 5620N RESNO NETKI CON LIPGO SEMMU BERUL RETSI FITBO EGLL
TRACK DATA
50,000 ft 1,000 kts
AIRCRAFT INFO AND CUMULATIVE STATS
Aircraft Type: 
B772
Registration: 
SELCAL: 
CDEJ
MSN/LN: 
30309 / 303
Operator: 
Total Flights: 
2
Total Block Time: 
12 hrs
Total Flight Time: 
11.3 hrs
Total Fuel Used: 
76,277 kg
DATALINK LOG | Newest first | Current as of: 2022-10-04 19:42:20
LABEL SEQUENCE CONTENT Dn/Up
QD115001:58 19.3▼ Dn
QC034201:50▼ Dn
2U1705EGLL 020050Z AUTO 06009KT 9999 BKN020 06/01 Q1029▲ Up
2S3009EGLL▼ Dn
2U5019EGLL 012320Z AUTO 05007KT 020V090 9999 OVC021 06/01 Q1029 NOSIG▲ Up
2S5150EGLL▼ Dn
QB284115:27▼ Dn
QA132815:11 170▼ Dn
A33702NO MATCHING FLIGHT DATA AVAILABLE FROM ANSP▲ Up
Q01936[LINK ACK]▲ Up
Q01936[LINK TEST]▼ Dn


AIRCRAFT HISTORY
FLIGHT DATE FLIGHT NO. ORIGIN DESTINATION CLEARED ROUTE BLOCK TIME FLIGHT TIME FUEL USED PILOT
2021-04-05BAW9800CEGLL EIDW EGLL CPT KENET UGNUS OKTAD DOBEM TOPRO MEDOG LANON BADSI ABLIN EIDW1.3 hrs0.9 hrs17,698 lbChris Makris
2021-04-01BAW1509KLAX EGLL KLAX LAS SUVIE NORRA BCE HVE DBL DVV LBF OBH TODDO JORDY CAPPR DBQ BAE ASP YXI ANCER LOMSI 5550N 5740N 5730N 5620N RESNO NETKI CON LIPGO SEMMU BERUL RETSI FITBO EGLL10.7 hrs10.4 hrs150,464 lbRyan Syferd